Terminal Aerodrome Forecast
Issued by NWS Louisville, KY

Home | Current Version | Previous Version | Text Only | Print | Product List | Glossary On
Versions: 1 2 3 4 5 6 7 8 9 10 11 12 13 14 15 16 17 18 19 20 21 22
798
FTUS43 KLMK 071720
TAFSDF
TAF
KSDF 071720Z 0718/0824 22011G19KT P6SM SCT250
     FM072300 21007KT P6SM BKN060 BKN250
     FM080500 23008KT P6SM VCSH BKN040
     FM081000 25008KT P6SM -RASN OVC025
     FM081500 27012G20KT 5SM -RASN BR OVC020=

USA.gov is the U.S. government's official web portal to all federal, state and local government web resources and services.